createdAt,value
2024-05-09T00:00:47.065Z,30.67
2024-05-09T00:03:14.681Z,36.83
2024-05-09T00:05:44.858Z,34.88
2024-05-09T00:08:12.712Z,36.60
2024-05-09T00:10:41.230Z,36.45
2024-05-09T00:13:10.403Z,30.10
2024-05-09T00:15:39.266Z,46.50
2024-05-09T00:18:07.772Z,51.35
2024-05-09T00:20:39.627Z,57.35
2024-05-09T00:23:10.744Z,57.58
2024-05-09T00:25:38.684Z,54.00
2024-05-09T00:28:06.685Z,55.08
2024-05-09T00:30:36.220Z,49.50
2024-05-09T00:33:06.823Z,52.30
2024-05-09T00:35:35.560Z,58.15
2024-05-09T00:38:03.714Z,48.70
2024-05-09T00:40:41.843Z,54.80
2024-05-09T00:43:12.598Z,63.75
2024-05-09T00:45:41.429Z,53.28
2024-05-09T00:48:11.564Z,55.38
2024-05-09T00:50:42.952Z,55.50
2024-05-09T00:53:15.908Z,65.22
2024-05-09T00:55:44.218Z,62.53
2024-05-09T00:58:13.771Z,60.30
2024-05-09T01:00:41.832Z,55.85
2024-05-09T01:03:12.086Z,65.53
2024-05-09T01:05:41.471Z,65.68
2024-05-09T01:08:11.696Z,63.97
2024-05-09T01:10:40.803Z,62.88
2024-05-09T01:13:10.314Z,57.47
2024-05-09T01:15:37.745Z,61.08
2024-05-09T01:18:10.545Z,61.22
2024-05-09T01:20:42.524Z,60.33
2024-05-09T01:23:14.530Z,70.75
2024-05-09T01:25:43.923Z,65.22
2024-05-09T01:28:11.467Z,62.65
2024-05-09T01:30:38.977Z,52.92
2024-05-09T01:33:08.926Z,64.45
2024-05-09T01:35:39.058Z,74.93
2024-05-09T01:38:07.025Z,60.58
2024-05-09T01:40:38.630Z,77.43
2024-05-09T01:43:09.547Z,69.35
2024-05-09T01:45:38.609Z,71.13
2024-05-09T01:48:06.837Z,79.30
2024-05-09T01:50:39.508Z,80.15
2024-05-09T01:53:10.973Z,78.80
2024-05-09T01:55:38.751Z,74.82
2024-05-09T01:58:06.431Z,85.35
2024-05-09T02:00:40.266Z,81.82
2024-05-09T02:03:16.560Z,79.45
2024-05-09T02:05:47.462Z,74.97
2024-05-09T02:08:20.003Z,85.13
2024-05-09T02:10:48.845Z,80.68
2024-05-09T02:13:16.889Z,78.28
2024-05-09T02:15:44.467Z,89.47
2024-05-09T02:18:12.179Z,89.18
2024-05-09T02:20:42.190Z,90.85
2024-05-09T02:23:10.506Z,97.60
2024-05-09T02:25:39.000Z,89.78
2024-05-09T02:28:06.940Z,89.03
2024-05-09T02:30:39.907Z,89.35
2024-05-09T02:33:13.731Z,91.43
2024-05-09T02:35:43.665Z,94.53
2024-05-09T02:40:40.259Z,92.80
2024-05-09T02:43:09.962Z,99.00
2024-05-09T02:45:38.793Z,96.10
2024-05-09T02:48:07.103Z,84.75
2024-05-09T02:50:38.948Z,93.15
2024-05-09T02:53:08.926Z,88.55
2024-05-09T02:55:37.286Z,91.97
2024-05-09T02:58:04.996Z,97.47
2024-05-09T03:00:38.691Z,96.65
2024-05-09T03:03:10.596Z,92.57
2024-05-09T03:05:40.884Z,103.10
2024-05-09T03:08:08.584Z,107.20
2024-05-09T03:10:38.020Z,112.47
2024-05-09T03:13:13.075Z,96.70
2024-05-09T03:15:41.383Z,89.45
2024-05-09T03:18:09.524Z,90.60
2024-05-09T03:20:38.059Z,86.45
2024-05-09T03:23:08.903Z,90.72
2024-05-09T03:25:37.897Z,88.85
2024-05-09T03:28:05.876Z,89.68
2024-05-09T03:30:40.177Z,96.07
2024-05-09T03:33:11.393Z,95.75
2024-05-09T03:35:39.219Z,83.68
2024-05-09T03:38:06.726Z,86.65
2024-05-09T03:40:34.079Z,84.40
2024-05-09T03:43:01.443Z,81.50
2024-05-09T03:45:28.957Z,88.32
2024-05-09T03:47:56.459Z,87.47
2024-05-09T03:50:30.132Z,92.70
2024-05-09T03:53:02.304Z,100.47
2024-05-09T03:55:29.978Z,99.82
2024-05-09T03:57:57.500Z,102.78
2024-05-09T04:00:31.489Z,112.45
2024-05-09T04:03:07.600Z,102.90
2024-05-09T04:05:38.328Z,109.10
2024-05-09T04:08:06.328Z,103.95
2024-05-09T04:10:35.099Z,107.88
2024-05-09T04:13:04.094Z,91.50
2024-05-09T04:15:32.151Z,102.57
2024-05-09T04:18:00.343Z,96.38
2024-05-09T04:20:36.648Z,110.15
2024-05-09T04:23:08.735Z,114.80
2024-05-09T04:28:04.242Z,107.47
2024-05-09T04:30:37.977Z,103.18
2024-05-09T04:33:10.433Z,102.57
2024-05-09T04:35:42.613Z,101.75
2024-05-09T04:38:11.307Z,99.97
2024-05-09T04:40:38.795Z,103.40
2024-05-09T04:43:07.095Z,96.82
2024-05-09T04:45:35.381Z,90.70
2024-05-09T04:48:03.387Z,98.45
2024-05-09T04:50:36.810Z,110.75
2024-05-09T04:53:08.152Z,105.35
2024-05-09T04:55:37.007Z,105.60
2024-05-09T04:58:05.811Z,105.93
2024-05-09T05:00:37.144Z,111.93
2024-05-09T05:03:13.487Z,127.55
2024-05-09T05:05:44.831Z,122.57
2024-05-09T05:08:16.465Z,120.85
2024-05-09T05:10:45.341Z,118.75
2024-05-09T05:13:21.061Z,113.78
2024-05-09T05:15:53.703Z,78.30
2024-05-09T05:18:22.521Z,99.55
2024-05-09T05:23:22.726Z,80.70
2024-05-09T05:25:52.461Z,110.55
2024-05-09T05:28:20.818Z,87.32
2024-05-09T05:30:47.984Z,96.15
2024-05-09T05:33:18.964Z,66.10
2024-05-09T05:35:46.826Z,80.40
2024-05-09T05:38:14.491Z,68.18
2024-05-09T05:40:43.765Z,70.00
2024-05-09T05:43:17.531Z,73.60
2024-05-09T05:45:47.197Z,79.60
2024-05-09T05:48:17.857Z,88.50
2024-05-09T05:50:46.988Z,93.35
2024-05-09T05:53:14.502Z,75.45
2024-05-09T05:55:42.155Z,83.07
2024-05-09T05:58:10.844Z,80.90
2024-05-09T06:00:40.122Z,84.75
2024-05-09T06:03:09.974Z,90.68
2024-05-09T06:05:43.681Z,91.18
2024-05-09T06:08:11.818Z,85.10
2024-05-09T06:10:41.014Z,89.40
2024-05-09T06:15:41.192Z,75.70
2024-05-09T06:18:10.600Z,62.63
2024-05-09T06:20:42.780Z,56.90
2024-05-09T06:23:11.353Z,52.67
2024-05-09T06:25:39.946Z,50.13
2024-05-09T06:28:07.424Z,49.90
2024-05-09T06:30:40.320Z,52.83
2024-05-09T06:33:12.472Z,50.85
2024-05-09T06:35:42.066Z,51.42
2024-05-09T06:38:09.971Z,53.38
2024-05-09T06:40:41.665Z,51.70
2024-05-09T06:43:19.004Z,50.42
2024-05-09T06:45:49.801Z,47.40
2024-05-09T06:48:19.985Z,44.65
2024-05-09T06:50:50.359Z,48.85
2024-05-09T06:53:20.651Z,45.70
2024-05-09T06:55:50.122Z,44.95
2024-05-09T06:58:17.746Z,48.40
2024-05-09T07:00:44.991Z,57.83
2024-05-09T07:03:16.031Z,49.85
2024-05-09T07:05:46.781Z,41.53
2024-05-09T07:10:44.486Z,38.10
2024-05-09T07:13:13.724Z,37.60
2024-05-09T07:15:41.828Z,35.92
2024-05-09T07:18:18.768Z,38.20
2024-05-09T07:20:48.231Z,32.08
2024-05-09T07:23:16.713Z,37.92
2024-05-09T07:25:44.622Z,38.08
2024-05-09T07:28:19.275Z,35.30
2024-05-09T07:30:46.786Z,37.95
2024-05-09T07:33:22.665Z,36.00
2024-05-09T07:35:51.730Z,31.20
2024-05-09T07:38:19.337Z,30.70
2024-05-09T07:40:46.910Z,28.80
2024-05-09T07:43:15.091Z,29.13
2024-05-09T07:45:51.254Z,25.27
2024-05-09T07:52:33.081Z,25.55
2024-05-09T07:53:47.887Z,29.65
2024-05-09T07:56:20.113Z,31.35
2024-05-09T07:58:50.797Z,30.27
2024-05-09T08:01:18.313Z,29.30
2024-05-09T08:03:47.990Z,36.30
2024-05-09T08:06:16.577Z,30.30
2024-05-09T08:08:45.884Z,40.05
2024-05-09T08:11:14.447Z,32.25
2024-05-09T08:13:41.774Z,28.80
2024-05-09T08:16:09.779Z,30.40
2024-05-09T08:18:37.505Z,32.22
2024-05-09T08:21:05.244Z,30.80
2024-05-09T08:23:32.529Z,27.38
2024-05-09T08:25:59.888Z,27.02
2024-05-09T08:28:27.507Z,25.50
2024-05-09T08:30:55.085Z,28.15
2024-05-09T08:33:23.635Z,24.55
2024-05-09T08:35:51.035Z,24.07
2024-05-09T08:38:18.470Z,24.77
2024-05-09T08:40:46.147Z,24.65
2024-05-09T08:43:16.619Z,26.67
2024-05-09T08:45:45.353Z,31.08
2024-05-09T08:48:15.165Z,27.35
2024-05-09T08:50:44.822Z,24.25
2024-05-09T08:55:43.870Z,23.30
2024-05-09T08:58:19.352Z,25.13
2024-05-09T09:00:47.236Z,23.70
2024-05-09T09:03:27.192Z,24.08
2024-05-09T09:06:10.691Z,24.52
2024-05-09T09:08:41.170Z,23.15
2024-05-09T09:11:09.338Z,20.83
2024-05-09T09:13:38.283Z,21.23
2024-05-09T09:16:06.845Z,21.10
2024-05-09T09:18:34.575Z,21.42
2024-05-09T09:21:03.322Z,21.40
2024-05-09T09:23:31.098Z,20.70
2024-05-09T09:26:01.949Z,22.10
2024-05-09T09:28:30.140Z,19.95
2024-05-09T09:31:04.122Z,19.65
2024-05-09T09:33:32.545Z,20.65
2024-05-09T09:36:00.646Z,18.90
2024-05-09T09:38:31.956Z,21.05
2024-05-09T09:41:01.756Z,20.77
2024-05-09T09:43:31.144Z,20.13
2024-05-09T09:46:00.951Z,20.15
2024-05-09T09:48:31.556Z,19.27
2024-05-09T09:51:00.433Z,19.48
2024-05-09T09:53:29.391Z,18.27
2024-05-09T09:55:57.825Z,16.33
2024-05-09T09:58:25.806Z,17.20
2024-05-09T10:00:53.394Z,16.67
2024-05-09T10:03:20.846Z,15.13
2024-05-09T10:05:49.527Z,16.20
2024-05-09T10:08:18.296Z,17.42
2024-05-09T10:10:48.903Z,17.15
2024-05-09T10:13:16.647Z,19.55
2024-05-09T10:15:51.279Z,18.58
2024-05-09T10:18:28.138Z,20.05
2024-05-09T10:20:59.746Z,20.73
2024-05-09T10:23:29.490Z,20.85
2024-05-09T10:25:58.332Z,21.13
2024-05-09T10:28:31.462Z,20.17
2024-05-09T10:31:13.778Z,21.23
2024-05-09T10:33:52.432Z,21.27
2024-05-09T10:36:27.525Z,21.00
2024-05-09T10:38:55.571Z,23.88
2024-05-09T10:41:23.882Z,22.10
2024-05-09T10:43:52.358Z,23.10
2024-05-09T10:46:20.314Z,24.73
2024-05-09T10:48:48.687Z,22.90
2024-05-09T10:51:19.339Z,21.35
2024-05-09T10:53:48.174Z,23.52
2024-05-09T10:56:16.412Z,22.25
2024-05-09T10:58:44.740Z,24.13
2024-05-09T11:01:13.726Z,23.35
2024-05-09T11:06:10.785Z,23.48
2024-05-09T11:08:40.343Z,23.90
2024-05-09T11:11:10.609Z,24.17
2024-05-09T11:13:40.575Z,23.90
2024-05-09T11:16:20.483Z,22.58
2024-05-09T11:18:56.401Z,20.08
2024-05-09T11:21:24.693Z,22.05
2024-05-09T11:23:53.264Z,22.35
2024-05-09T11:26:22.346Z,24.57
2024-05-09T11:28:51.891Z,22.40
2024-05-09T11:31:20.532Z,22.00
2024-05-09T11:33:48.353Z,19.63
2024-05-09T11:36:15.987Z,20.73
2024-05-09T11:38:43.491Z,22.52
2024-05-09T11:41:18.027Z,21.58
2024-05-09T11:43:45.335Z,23.35
2024-05-09T11:46:13.129Z,23.63
2024-05-09T11:48:40.896Z,23.27
2024-05-09T11:51:08.346Z,20.67
2024-05-09T11:53:35.720Z,22.85
2024-05-09T11:56:03.412Z,21.65
2024-05-09T11:58:37.027Z,20.13
2024-05-09T12:01:04.859Z,19.50
2024-05-09T12:03:32.580Z,22.08
2024-05-09T12:05:59.979Z,21.23
2024-05-09T12:08:27.473Z,21.13
2024-05-09T12:10:54.984Z,20.48
2024-05-09T12:13:22.441Z,21.10
2024-05-09T12:15:49.695Z,23.27
2024-05-09T12:18:17.194Z,23.27
2024-05-09T12:20:44.560Z,21.90
2024-05-09T12:23:12.108Z,20.23
2024-05-09T12:25:40.261Z,21.17
2024-05-09T12:28:08.772Z,19.90
2024-05-09T12:30:40.288Z,20.20
2024-05-09T12:33:11.557Z,19.50
2024-05-09T12:35:39.723Z,19.85
2024-05-09T12:38:07.118Z,18.58
2024-05-09T12:40:37.589Z,17.92
2024-05-09T12:43:11.475Z,17.50
2024-05-09T12:45:40.265Z,18.63
2024-05-09T12:48:12.337Z,21.97
2024-05-09T12:50:40.742Z,19.75
2024-05-09T12:53:08.164Z,18.13
2024-05-09T12:55:44.178Z,19.77
2024-05-09T12:58:22.330Z,16.75
2024-05-09T13:00:52.461Z,15.57
2024-05-09T13:03:20.291Z,17.48
2024-05-09T13:05:48.812Z,16.30
2024-05-09T13:08:16.547Z,16.02
2024-05-09T13:10:43.940Z,15.55
2024-05-09T13:13:12.948Z,15.32
2024-05-09T13:15:40.460Z,16.65
2024-05-09T13:18:08.697Z,16.17
2024-05-09T13:20:37.148Z,15.07
2024-05-09T13:23:07.351Z,14.43
2024-05-09T13:25:38.039Z,14.65
2024-05-09T13:28:07.535Z,14.45
2024-05-09T13:30:40.405Z,15.32
2024-05-09T13:33:11.520Z,15.23
2024-05-09T13:35:45.573Z,15.68
2024-05-09T13:38:17.036Z,13.07
2024-05-09T13:40:44.956Z,14.02
2024-05-09T13:43:12.787Z,15.70
2024-05-09T13:45:40.351Z,14.68
2024-05-09T13:48:10.014Z,14.80
2024-05-09T13:50:39.047Z,14.77
2024-05-09T13:53:08.072Z,15.80
2024-05-09T13:55:38.606Z,15.38
2024-05-09T13:58:06.714Z,15.57
2024-05-09T14:00:44.125Z,16.13
2024-05-09T14:03:17.961Z,18.15
2024-05-09T14:05:49.862Z,15.15
2024-05-09T14:08:19.855Z,15.02
2024-05-09T14:10:47.778Z,16.15
2024-05-09T14:13:17.498Z,16.75
2024-05-09T14:15:46.617Z,15.52
2024-05-09T14:18:14.655Z,15.40
2024-05-09T14:20:43.115Z,14.35
2024-05-09T14:23:10.799Z,15.15
2024-05-09T14:25:42.558Z,17.10
2024-05-09T14:28:12.647Z,18.00
2024-05-09T14:33:09.412Z,17.40
2024-05-09T14:35:38.839Z,16.52
2024-05-09T14:40:40.752Z,18.95
2024-05-09T14:43:15.278Z,18.95
2024-05-09T14:45:46.473Z,15.10
2024-05-09T14:48:15.564Z,15.20
2024-05-09T14:50:43.299Z,15.48
2024-05-09T14:53:12.024Z,17.05
2024-05-09T14:55:41.927Z,18.65
2024-05-09T14:58:11.316Z,15.57
2024-05-09T15:00:45.777Z,25.17
2024-05-09T15:03:21.665Z,14.82
2024-05-09T15:05:50.369Z,14.82
2024-05-09T15:08:18.993Z,15.07
2024-05-09T15:10:46.826Z,15.88
2024-05-09T15:13:16.525Z,13.88
2024-05-09T15:15:45.742Z,14.75
2024-05-09T15:18:14.612Z,15.00
2024-05-09T15:20:43.472Z,15.95
2024-05-09T15:23:11.103Z,14.85
2024-05-09T15:25:38.492Z,15.15
2024-05-09T15:28:08.145Z,15.40
2024-05-09T15:30:36.369Z,14.38
2024-05-09T15:33:04.609Z,22.20
2024-05-09T15:35:32.544Z,13.47
2024-05-09T15:38:00.662Z,13.73
2024-05-09T15:40:36.219Z,14.18
2024-05-09T15:43:09.108Z,13.25
2024-05-09T15:45:38.034Z,15.82
2024-05-09T15:48:06.762Z,13.10
2024-05-09T15:50:38.899Z,15.32
2024-05-09T15:53:10.098Z,14.05
2024-05-09T15:55:38.562Z,14.77
2024-05-09T15:58:07.793Z,16.42
2024-05-09T16:00:39.467Z,14.88
2024-05-09T16:03:11.144Z,15.30
2024-05-09T16:05:39.374Z,12.93
2024-05-09T16:08:07.874Z,16.23
2024-05-09T16:10:36.101Z,14.48
2024-05-09T16:13:04.184Z,15.13
2024-05-09T16:15:31.957Z,12.93
2024-05-09T16:18:00.259Z,14.88
2024-05-09T16:20:34.767Z,13.40
2024-05-09T16:25:35.334Z,18.80
2024-05-09T16:28:07.424Z,13.82
2024-05-09T16:30:37.987Z,14.75
2024-05-09T16:33:06.264Z,14.77
2024-05-09T16:35:34.979Z,13.10
2024-05-09T16:38:03.531Z,12.27
2024-05-09T16:40:37.852Z,12.17
2024-05-09T16:43:10.231Z,12.82
2024-05-09T16:45:44.284Z,12.55
2024-05-09T16:48:13.187Z,13.90
2024-05-09T16:50:40.619Z,12.52
2024-05-09T16:53:08.665Z,13.90
2024-05-09T16:55:36.452Z,14.30
2024-05-09T16:58:05.032Z,17.83
2024-05-09T17:00:40.232Z,13.83
2024-05-09T17:03:13.000Z,13.00
2024-05-09T17:05:41.746Z,11.98
2024-05-09T17:08:09.679Z,16.67
2024-05-09T17:10:37.955Z,13.20
2024-05-09T17:13:07.327Z,13.13
2024-05-09T17:15:37.117Z,13.77
2024-05-09T17:20:36.148Z,12.40
2024-05-09T17:23:13.397Z,12.25
2024-05-09T17:25:41.831Z,11.90
2024-05-09T17:28:10.009Z,12.65
2024-05-09T17:30:39.732Z,12.30
2024-05-09T17:33:10.034Z,15.82
2024-05-09T17:35:38.647Z,12.98
2024-05-09T17:38:06.853Z,12.68
2024-05-09T17:40:36.872Z,12.77
2024-05-09T17:43:08.495Z,13.13
2024-05-09T17:45:39.159Z,14.20
2024-05-09T17:48:08.192Z,11.55
2024-05-09T17:50:37.472Z,12.43
2024-05-09T17:53:09.251Z,11.60
2024-05-09T17:55:37.164Z,12.85
2024-05-09T17:58:06.189Z,11.55
2024-05-09T18:00:39.321Z,11.00
2024-05-09T18:03:12.316Z,11.20
2024-05-09T18:05:41.631Z,10.98
2024-05-09T18:08:09.426Z,12.20
2024-05-09T18:10:39.386Z,10.70
2024-05-09T18:13:12.005Z,10.25
2024-05-09T18:15:40.267Z,10.60
2024-05-09T18:18:10.843Z,10.18
2024-05-09T18:20:43.870Z,10.13
2024-05-09T18:23:17.930Z,14.18
2024-05-09T18:25:47.004Z,12.48
2024-05-09T18:28:15.706Z,14.35
2024-05-09T18:30:43.367Z,22.02
2024-05-09T18:33:11.729Z,11.88
2024-05-09T18:35:44.763Z,10.70
2024-05-09T18:38:12.488Z,12.70
2024-05-09T18:40:41.706Z,15.32
2024-05-09T18:43:11.019Z,11.15
2024-05-09T18:45:38.926Z,12.57
2024-05-09T18:48:08.251Z,10.77
2024-05-09T18:53:13.056Z,13.52
2024-05-09T18:55:42.836Z,10.60
2024-05-09T18:58:10.598Z,12.27
2024-05-09T19:00:40.341Z,12.68
2024-05-09T19:03:12.877Z,10.73
2024-05-09T19:05:43.709Z,14.05
2024-05-09T19:08:12.612Z,17.13
2024-05-09T19:10:41.528Z,16.50
2024-05-09T19:13:12.322Z,11.90
2024-05-09T19:15:44.017Z,13.13
2024-05-09T19:18:14.382Z,15.77
2024-05-09T19:20:43.064Z,12.07
2024-05-09T19:23:11.844Z,15.95
2024-05-09T19:25:39.534Z,17.35
2024-05-09T19:28:07.119Z,12.52
2024-05-09T19:30:39.917Z,13.00
2024-05-09T19:33:12.371Z,12.50
2024-05-09T19:35:40.792Z,17.05
2024-05-09T19:38:08.406Z,13.18
2024-05-09T19:40:36.167Z,12.45
2024-05-09T19:43:05.835Z,11.30
2024-05-09T19:45:35.485Z,13.38
2024-05-09T19:48:05.152Z,12.05
2024-05-09T19:50:41.182Z,12.27
2024-05-09T19:53:12.531Z,13.20
2024-05-09T19:55:40.905Z,16.40
2024-05-09T19:58:09.606Z,12.18
2024-05-09T20:00:40.548Z,13.50
2024-05-09T20:03:11.628Z,16.92
2024-05-09T20:05:39.814Z,14.80
2024-05-09T20:08:07.968Z,15.60
2024-05-09T20:10:37.052Z,15.20
2024-05-09T20:13:06.439Z,20.15
2024-05-09T20:15:35.730Z,15.57
2024-05-09T20:18:04.086Z,18.00
2024-05-09T20:20:37.163Z,15.68
2024-05-09T20:23:09.808Z,17.40
2024-05-09T20:25:37.340Z,15.43
2024-05-09T20:28:06.602Z,16.13
2024-05-09T20:30:35.595Z,18.35
2024-05-09T20:33:07.348Z,18.35
2024-05-09T20:35:37.289Z,19.00
2024-05-09T20:38:04.990Z,19.63
2024-05-09T20:40:36.298Z,20.92
2024-05-09T20:43:07.112Z,29.85
2024-05-09T20:45:35.390Z,30.90
2024-05-09T20:48:04.097Z,23.08
2024-05-09T20:50:37.965Z,27.70
2024-05-09T20:53:13.750Z,26.63
2024-05-09T20:55:43.225Z,26.73
2024-05-09T20:58:11.073Z,33.30
2024-05-09T21:00:42.112Z,25.13
2024-05-09T21:03:13.335Z,24.52
2024-05-09T21:05:41.927Z,28.08
2024-05-09T21:08:09.397Z,24.67
2024-05-09T21:10:37.391Z,32.70
2024-05-09T21:13:06.341Z,25.10
2024-05-09T21:15:34.938Z,32.40
2024-05-09T21:18:03.026Z,26.65
2024-05-09T21:20:32.913Z,31.60
2024-05-09T21:23:01.945Z,30.55
2024-05-09T21:25:29.997Z,37.90
2024-05-09T21:27:57.675Z,28.10
2024-05-09T21:30:37.486Z,33.33
2024-05-09T21:33:10.852Z,40.55
2024-05-09T21:35:39.860Z,37.40
2024-05-09T21:38:08.337Z,40.80
2024-05-09T21:40:38.160Z,42.58
2024-05-09T21:43:07.805Z,40.15
2024-05-09T21:45:37.110Z,47.38
2024-05-09T21:48:05.490Z,51.80
2024-05-09T21:50:39.595Z,49.25
2024-05-09T21:53:09.732Z,47.38
2024-05-09T21:55:37.291Z,49.33
2024-05-09T21:58:04.708Z,49.67
2024-05-09T22:00:36.600Z,46.75
2024-05-09T22:03:10.699Z,48.20
2024-05-09T22:05:42.224Z,53.70
2024-05-09T22:08:09.702Z,51.72
2024-05-09T22:10:37.580Z,52.80
2024-05-09T22:13:07.230Z,49.30
2024-05-09T22:15:40.224Z,57.35
2024-05-09T22:18:10.449Z,60.70
2024-05-09T22:20:45.157Z,60.75
2024-05-09T22:23:15.798Z,60.03
2024-05-09T22:25:43.260Z,65.45
2024-05-09T22:28:14.855Z,67.70
2024-05-09T22:30:44.099Z,77.78
2024-05-09T22:33:12.258Z,68.57
2024-05-09T22:35:40.980Z,74.57
2024-05-09T22:38:09.181Z,65.07
2024-05-09T22:40:46.239Z,75.45
2024-05-09T22:43:21.485Z,74.50
2024-05-09T22:45:50.844Z,68.70
2024-05-09T22:48:18.777Z,65.88
2024-05-09T22:50:46.368Z,68.93
2024-05-09T22:53:13.514Z,69.47
2024-05-09T22:55:40.727Z,76.45
2024-05-09T22:58:08.250Z,78.78
2024-05-09T23:00:35.725Z,77.32
2024-05-09T23:03:03.571Z,77.88
2024-05-09T23:05:34.660Z,74.25
2024-05-09T23:08:02.856Z,74.88
2024-05-09T23:10:35.961Z,80.63
2024-05-09T23:13:06.760Z,77.05
2024-05-09T23:18:02.205Z,72.50
2024-05-09T23:20:36.813Z,73.15
2024-05-09T23:23:07.517Z,66.35
2024-05-09T23:25:35.207Z,67.55
2024-05-09T23:28:02.840Z,74.40
2024-05-09T23:30:37.392Z,71.35
2024-05-09T23:33:08.456Z,81.85
2024-05-09T23:35:36.417Z,71.45
2024-05-09T23:38:05.298Z,72.38
2024-05-09T23:43:03.374Z,73.15
2024-05-09T23:45:31.045Z,76.13
2024-05-09T23:47:58.653Z,79.55
2024-05-09T23:50:33.675Z,75.38
2024-05-09T23:53:04.056Z,75.03
2024-05-09T23:55:32.188Z,71.55
2024-05-09T23:58:00.968Z,70.30
